Lake Isabella, CA

12:23 PM PST on December 28, 2014 (GMT -0800)
Meadows | Change Station
CLOSE
Current Station
Airport
Location: Bakersfield,
Elevation: 492 ft
Nearby Weather Stations
Active Advisory: Winter Storm Watch

Elev 492 ft 35.43 °N, 119.05 °W | Updated 29 minutes ago

Clear
Clear
48 °F
Feels Like 48 °F
N
0
Wind Variable Wind from North

Today
High -- | Low -- °F
--% Chance of Precip.
Yesterday
High -- | Low -- °F
Precip. -- in
7:02 AM 4:48 PM
Waxing Crescent, 51% visible
Pressure 30.29 in
Visibility 9.0 miles
Clouds Clear
Dew Point 35 °F
Humidity 61%
Rainfall 0.00 in
Snow Depth Not available.
UV 3 out of 12
Pollen 5.30 out of 12
Air Quality Not available.
Flu Activity Not available.
METAR KBFL 281954Z 00000KT 9SM CLR 09/02 A3028 RMK AO2 SLP255 T00890017

More Conditions Fewer Conditions

Pressure 30.29 in
Visibility 9.0 miles
Clouds Clear
Dew Point 35 °F
Humidity 61%
Rainfall 0.00 in
Snow Depth Not available.
UV 3 out of 12
Pollen 5.30 out of 12
Air Quality Not available.
Flu Activity Not available.
METAR KBFL 281954Z 00000KT 9SM CLR 09/02 A3028 RMK AO2 SLP255 T00890017

More Conditions Fewer Conditions

10-Day Weather Forecast

Almanac

Astronomy

Dec. 28, 2014 Rise Set
Actual Time
Civil Twilight
Nautical Twilight
Astronomical Twilight
Moon
Length of Visible Light
Length of Day
Tomorrow will be .
, % of the Moon is Illuminated

Today's Extremes

State Highs State Lows

Community

WunderPhotos

Upload Photos

1,781,411 photos uploaded!

WunderBlogs® & News

Nearby

Air Quality

  Air Quality AQ Index Pollutant
Not available.

Snow Depth

Station Depth Elevation

Earthquake Activity

City Distance Mag. Time & Date
Minimum magnitude displayed is 2.5.

Coastal Water Temperatures

Place Temperature

Nearby Weather Stations